sensor_id;sensor_type;location;lat;lon;timestamp;P1;durP1;ratioP1;P2;durP2;ratioP2
25950;SDS011;13748;52.240;6.002;2023-07-29T00:01:36;6.40;;;4.25;;
25950;SDS011;13748;52.240;6.002;2023-07-29T00:04:03;5.78;;;4.13;;
25950;SDS011;13748;52.240;6.002;2023-07-29T00:06:31;6.15;;;4.13;;
25950;SDS011;13748;52.240;6.002;2023-07-29T00:08:58;7.35;;;4.10;;
25950;SDS011;13748;52.240;6.002;2023-07-29T00:11:25;6.78;;;4.20;;
25950;SDS011;13748;52.240;6.002;2023-07-29T00:13:52;6.57;;;4.13;;
25950;SDS011;13748;52.240;6.002;2023-07-29T00:16:19;5.82;;;3.83;;
25950;SDS011;13748;52.240;6.002;2023-07-29T00:18:49;4.38;;;3.53;;
25950;SDS011;13748;52.240;6.002;2023-07-29T00:21:16;5.90;;;3.67;;
25950;SDS011;13748;52.240;6.002;2023-07-29T00:23:43;6.60;;;3.40;;
25950;SDS011;13748;52.240;6.002;2023-07-29T00:26:09;5.55;;;3.55;;
25950;SDS011;13748;52.240;6.002;2023-07-29T00:28:36;5.38;;;3.28;;
25950;SDS011;13748;52.240;6.002;2023-07-29T00:31:03;5.07;;;3.20;;
25950;SDS011;13748;52.240;6.002;2023-07-29T00:33:30;4.07;;;3.35;;
25950;SDS011;13748;52.240;6.002;2023-07-29T00:35:57;3.78;;;2.95;;
25950;SDS011;13748;52.240;6.002;2023-07-29T00:38:28;4.18;;;2.90;;
25950;SDS011;13748;52.240;6.002;2023-07-29T00:40:56;5.25;;;3.22;;
25950;SDS011;13748;52.240;6.002;2023-07-29T00:43:24;4.13;;;2.72;;
25950;SDS011;13748;52.240;6.002;2023-07-29T00:45:51;5.35;;;3.03;;
25950;SDS011;13748;52.240;6.002;2023-07-29T00:48:18;5.15;;;3.05;;
25950;SDS011;13748;52.240;6.002;2023-07-29T00:50:45;3.88;;;2.88;;
25950;SDS011;13748;52.240;6.002;2023-07-29T00:53:12;4.53;;;3.05;;
25950;SDS011;13748;52.240;6.002;2023-07-29T00:55:39;4.82;;;2.72;;
25950;SDS011;13748;52.240;6.002;2023-07-29T00:58:07;5.03;;;3.08;;
25950;SDS011;13748;52.240;6.002;2023-07-29T01:00:33;4.40;;;2.75;;
25950;SDS011;13748;52.240;6.002;2023-07-29T01:03:00;4.80;;;3.28;;
25950;SDS011;13748;52.240;6.002;2023-07-29T01:05:30;3.83;;;2.70;;
25950;SDS011;13748;52.240;6.002;2023-07-29T01:08:21;6.20;;;2.75;;
25950;SDS011;13748;52.240;6.002;2023-07-29T01:13:57;3.88;;;2.78;;
25950;SDS011;13748;52.240;6.002;2023-07-29T01:16:33;3.33;;;2.72;;
25950;SDS011;13748;52.240;6.002;2023-07-29T01:19:07;4.78;;;3.00;;
25950;SDS011;13748;52.240;6.002;2023-07-29T01:22:00;5.13;;;3.35;;
25950;SDS011;13748;52.240;6.002;2023-07-29T01:24:29;3.83;;;3.03;;
25950;SDS011;13748;52.240;6.002;2023-07-29T01:26:55;4.88;;;3.30;;
25950;SDS011;13748;52.240;6.002;2023-07-29T01:29:22;4.05;;;3.03;;
25950;SDS011;13748;52.240;6.002;2023-07-29T01:31:49;4.70;;;3.85;;
25950;SDS011;13748;52.240;6.002;2023-07-29T01:34:24;4.70;;;3.53;;
25950;SDS011;13748;52.240;6.002;2023-07-29T01:36:56;4.13;;;3.05;;
25950;SDS011;13748;52.240;6.002;2023-07-29T01:39:29;4.43;;;3.40;;
25950;SDS011;13748;52.240;6.002;2023-07-29T01:42:00;7.93;;;3.55;;
25950;SDS011;13748;52.240;6.002;2023-07-29T01:44:28;5.15;;;3.10;;
25950;SDS011;13748;52.240;6.002;2023-07-29T01:46:55;5.88;;;3.35;;
25950;SDS011;13748;52.240;6.002;2023-07-29T01:49:22;3.90;;;2.53;;
25950;SDS011;13748;52.240;6.002;2023-07-29T01:51:49;4.22;;;2.95;;
25950;SDS011;13748;52.240;6.002;2023-07-29T01:54:16;6.28;;;3.60;;
25950;SDS011;13748;52.240;6.002;2023-07-29T01:56:43;3.95;;;2.38;;
25950;SDS011;13748;52.240;6.002;2023-07-29T01:59:10;5.43;;;3.53;;
25950;SDS011;13748;52.240;6.002;2023-07-29T02:01:36;6.53;;;3.28;;
25950;SDS011;13748;52.240;6.002;2023-07-29T02:04:03;4.63;;;3.10;;
25950;SDS011;13748;52.240;6.002;2023-07-29T02:06:30;3.67;;;2.67;;
25950;SDS011;13748;52.240;6.002;2023-07-29T02:09:00;5.57;;;3.13;;
25950;SDS011;13748;52.240;6.002;2023-07-29T02:11:27;4.97;;;2.88;;
25950;SDS011;13748;52.240;6.002;2023-07-29T02:13:54;4.82;;;2.97;;
25950;SDS011;13748;52.240;6.002;2023-07-29T02:16:22;4.53;;;2.72;;
25950;SDS011;13748;52.240;6.002;2023-07-29T02:18:49;7.18;;;3.15;;
25950;SDS011;13748;52.240;6.002;2023-07-29T02:21:19;4.10;;;2.80;;
25950;SDS011;13748;52.240;6.002;2023-07-29T02:23:46;5.28;;;3.38;;
25950;SDS011;13748;52.240;6.002;2023-07-29T02:26:13;5.40;;;2.85;;
25950;SDS011;13748;52.240;6.002;2023-07-29T02:28:40;4.20;;;2.67;;
25950;SDS011;13748;52.240;6.002;2023-07-29T02:31:16;4.30;;;2.75;;
25950;SDS011;13748;52.240;6.002;2023-07-29T02:33:44;3.97;;;2.72;;
25950;SDS011;13748;52.240;6.002;2023-07-29T02:36:12;5.47;;;3.00;;
25950;SDS011;13748;52.240;6.002;2023-07-29T02:38:39;4.22;;;2.80;;
25950;SDS011;13748;52.240;6.002;2023-07-29T02:41:07;5.10;;;2.83;;
25950;SDS011;13748;52.240;6.002;2023-07-29T02:43:35;4.00;;;2.85;;
25950;SDS011;13748;52.240;6.002;2023-07-29T02:46:02;4.63;;;2.92;;
25950;SDS011;13748;52.240;6.002;2023-07-29T02:48:29;4.45;;;2.70;;
25950;SDS011;13748;52.240;6.002;2023-07-29T02:50:56;4.35;;;2.80;;
25950;SDS011;13748;52.240;6.002;2023-07-29T02:53:23;4.78;;;2.53;;
25950;SDS011;13748;52.240;6.002;2023-07-29T02:55:50;4.28;;;2.65;;
25950;SDS011;13748;52.240;6.002;2023-07-29T02:58:17;5.43;;;2.75;;
25950;SDS011;13748;52.240;6.002;2023-07-29T03:00:44;2.80;;;2.17;;
25950;SDS011;13748;52.240;6.002;2023-07-29T03:03:11;4.05;;;2.45;;
25950;SDS011;13748;52.240;6.002;2023-07-29T03:05:38;4.22;;;2.47;;
25950;SDS011;13748;52.240;6.002;2023-07-29T03:08:05;3.72;;;2.70;;
25950;SDS011;13748;52.240;6.002;2023-07-29T03:10:34;3.25;;;2.45;;
25950;SDS011;13748;52.240;6.002;2023-07-29T03:13:02;3.15;;;2.40;;
25950;SDS011;13748;52.240;6.002;2023-07-29T03:15:29;3.72;;;2.60;;
25950;SDS011;13748;52.240;6.002;2023-07-29T03:17:56;3.63;;;2.50;;
25950;SDS011;13748;52.240;6.002;2023-07-29T03:20:23;4.10;;;2.75;;
25950;SDS011;13748;52.240;6.002;2023-07-29T03:22:50;4.35;;;2.72;;
25950;SDS011;13748;52.240;6.002;2023-07-29T03:25:17;2.95;;;2.30;;
25950;SDS011;13748;52.240;6.002;2023-07-29T03:27:44;4.32;;;2.55;;
25950;SDS011;13748;52.240;6.002;2023-07-29T03:30:11;3.78;;;2.70;;
25950;SDS011;13748;52.240;6.002;2023-07-29T03:32:40;5.53;;;3.30;;
25950;SDS011;13748;52.240;6.002;2023-07-29T03:35:09;6.00;;;2.58;;
25950;SDS011;13748;52.240;6.002;2023-07-29T03:37:36;4.93;;;3.35;;
25950;SDS011;13748;52.240;6.002;2023-07-29T03:40:03;5.57;;;3.35;;
25950;SDS011;13748;52.240;6.002;2023-07-29T03:42:30;4.63;;;3.20;;
25950;SDS011;13748;52.240;6.002;2023-07-29T03:44:57;5.28;;;3.35;;
25950;SDS011;13748;52.240;6.002;2023-07-29T03:47:24;5.63;;;3.70;;
25950;SDS011;13748;52.240;6.002;2023-07-29T03:49:51;7.00;;;4.20;;
25950;SDS011;13748;52.240;6.002;2023-07-29T03:52:17;8.10;;;4.10;;
25950;SDS011;13748;52.240;6.002;2023-07-29T03:54:44;6.60;;;4.28;;
25950;SDS011;13748;52.240;6.002;2023-07-29T03:57:12;7.20;;;4.07;;
25950;SDS011;13748;52.240;6.002;2023-07-29T03:59:38;7.00;;;4.13;;
25950;SDS011;13748;52.240;6.002;2023-07-29T04:02:05;9.73;;;4.35;;
25950;SDS011;13748;52.240;6.002;2023-07-29T04:04:32;5.60;;;3.67;;
25950;SDS011;13748;52.240;6.002;2023-07-29T04:07:00;5.22;;;3.78;;
25950;SDS011;13748;52.240;6.002;2023-07-29T04:09:26;6.70;;;4.32;;
25950;SDS011;13748;52.240;6.002;2023-07-29T04:11:53;9.07;;;4.68;;
25950;SDS011;13748;52.240;6.002;2023-07-29T04:14:20;8.10;;;4.40;;
25950;SDS011;13748;52.240;6.002;2023-07-29T04:16:47;7.88;;;4.20;;
25950;SDS011;13748;52.240;6.002;2023-07-29T04:19:15;7.03;;;4.00;;
25950;SDS011;13748;52.240;6.002;2023-07-29T04:21:42;7.50;;;4.20;;
25950;SDS011;13748;52.240;6.002;2023-07-29T04:24:09;7.35;;;4.18;;
25950;SDS011;13748;52.240;6.002;2023-07-29T04:26:36;7.53;;;4.28;;
25950;SDS011;13748;52.240;6.002;2023-07-29T04:29:03;9.07;;;4.63;;
25950;SDS011;13748;52.240;6.002;2023-07-29T04:31:30;7.22;;;4.30;;
25950;SDS011;13748;52.240;6.002;2023-07-29T04:33:56;8.27;;;4.88;;
25950;SDS011;13748;52.240;6.002;2023-07-29T04:36:23;7.63;;;4.05;;
25950;SDS011;13748;52.240;6.002;2023-07-29T04:38:50;6.05;;;4.35;;
25950;SDS011;13748;52.240;6.002;2023-07-29T04:41:17;7.38;;;4.40;;
25950;SDS011;13748;52.240;6.002;2023-07-29T04:43:44;8.23;;;3.70;;
25950;SDS011;13748;52.240;6.002;2023-07-29T04:46:10;8.27;;;4.68;;
25950;SDS011;13748;52.240;6.002;2023-07-29T04:48:37;7.63;;;4.28;;
25950;SDS011;13748;52.240;6.002;2023-07-29T04:51:04;6.22;;;4.10;;
25950;SDS011;13748;52.240;6.002;2023-07-29T04:53:31;7.00;;;4.10;;
25950;SDS011;13748;52.240;6.002;2023-07-29T04:55:58;5.60;;;3.75;;
25950;SDS011;13748;52.240;6.002;2023-07-29T04:58:24;6.05;;;3.83;;
25950;SDS011;13748;52.240;6.002;2023-07-29T05:00:54;5.68;;;4.07;;
25950;SDS011;13748;52.240;6.002;2023-07-29T05:03:20;7.18;;;4.22;;
25950;SDS011;13748;52.240;6.002;2023-07-29T05:05:47;7.68;;;4.57;;
25950;SDS011;13748;52.240;6.002;2023-07-29T05:08:15;6.65;;;3.65;;
25950;SDS011;13748;52.240;6.002;2023-07-29T05:10:41;4.63;;;3.42;;
25950;SDS011;13748;52.240;6.002;2023-07-29T05:13:08;6.45;;;3.58;;
25950;SDS011;13748;52.240;6.002;2023-07-29T05:15:35;5.78;;;3.45;;
25950;SDS011;13748;52.240;6.002;2023-07-29T05:18:02;4.50;;;3.22;;
25950;SDS011;13748;52.240;6.002;2023-07-29T05:20:29;4.30;;;2.90;;
25950;SDS011;13748;52.240;6.002;2023-07-29T05:22:55;5.85;;;3.03;;
25950;SDS011;13748;52.240;6.002;2023-07-29T05:25:22;3.88;;;2.95;;
25950;SDS011;13748;52.240;6.002;2023-07-29T05:27:49;3.47;;;2.35;;
25950;SDS011;13748;52.240;6.002;2023-07-29T05:30:16;5.30;;;3.03;;
25950;SDS011;13748;52.240;6.002;2023-07-29T05:32:43;4.90;;;2.85;;
25950;SDS011;13748;52.240;6.002;2023-07-29T05:35:10;4.85;;;3.15;;
25950;SDS011;13748;52.240;6.002;2023-07-29T05:37:40;4.60;;;3.10;;
25950;SDS011;13748;52.240;6.002;2023-07-29T05:40:07;4.05;;;2.60;;
25950;SDS011;13748;52.240;6.002;2023-07-29T05:42:34;4.28;;;2.92;;
25950;SDS011;13748;52.240;6.002;2023-07-29T05:45:02;5.05;;;2.85;;
25950;SDS011;13748;52.240;6.002;2023-07-29T05:47:29;4.10;;;2.78;;
25950;SDS011;13748;52.240;6.002;2023-07-29T05:49:55;5.18;;;2.97;;
25950;SDS011;13748;52.240;6.002;2023-07-29T05:52:22;6.05;;;2.45;;
25950;SDS011;13748;52.240;6.002;2023-07-29T05:54:49;3.92;;;2.42;;
25950;SDS011;13748;52.240;6.002;2023-07-29T05:57:16;3.42;;;2.63;;
25950;SDS011;13748;52.240;6.002;2023-07-29T05:59:43;5.28;;;2.88;;
25950;SDS011;13748;52.240;6.002;2023-07-29T06:02:09;3.97;;;3.05;;
25950;SDS011;13748;52.240;6.002;2023-07-29T06:04:36;6.05;;;3.25;;
25950;SDS011;13748;52.240;6.002;2023-07-29T06:07:03;6.25;;;3.08;;
25950;SDS011;13748;52.240;6.002;2023-07-29T06:09:31;5.38;;;2.65;;
25950;SDS011;13748;52.240;6.002;2023-07-29T06:11:57;6.45;;;3.17;;
25950;SDS011;13748;52.240;6.002;2023-07-29T06:14:24;5.47;;;3.00;;
25950;SDS011;13748;52.240;6.002;2023-07-29T06:16:51;5.68;;;2.92;;
25950;SDS011;13748;52.240;6.002;2023-07-29T06:19:19;4.43;;;2.90;;
25950;SDS011;13748;52.240;6.002;2023-07-29T06:21:46;3.38;;;2.25;;
25950;SDS011;13748;52.240;6.002;2023-07-29T06:24:14;4.70;;;2.90;;
25950;SDS011;13748;52.240;6.002;2023-07-29T06:26:41;4.13;;;2.75;;
25950;SDS011;13748;52.240;6.002;2023-07-29T06:29:08;5.13;;;2.80;;
25950;SDS011;13748;52.240;6.002;2023-07-29T06:31:35;3.97;;;3.15;;
25950;SDS011;13748;52.240;6.002;2023-07-29T06:34:01;4.97;;;3.10;;
25950;SDS011;13748;52.240;6.002;2023-07-29T06:36:28;5.05;;;2.80;;
25950;SDS011;13748;52.240;6.002;2023-07-29T06:38:55;4.25;;;2.70;;
25950;SDS011;13748;52.240;6.002;2023-07-29T06:41:22;3.70;;;2.90;;
25950;SDS011;13748;52.240;6.002;2023-07-29T06:43:48;3.83;;;2.50;;
25950;SDS011;13748;52.240;6.002;2023-07-29T06:46:15;3.67;;;2.35;;
25950;SDS011;13748;52.240;6.002;2023-07-29T06:48:42;4.25;;;2.90;;
25950;SDS011;13748;52.240;6.002;2023-07-29T06:51:09;5.22;;;2.75;;
25950;SDS011;13748;52.240;6.002;2023-07-29T06:53:36;4.28;;;2.60;;
25950;SDS011;13748;52.240;6.002;2023-07-29T06:56:03;4.55;;;2.70;;
25950;SDS011;13748;52.240;6.002;2023-07-29T06:58:31;6.00;;;2.60;;
25950;SDS011;13748;52.240;6.002;2023-07-29T07:00:57;5.75;;;2.70;;
25950;SDS011;13748;52.240;6.002;2023-07-29T07:03:24;5.70;;;3.10;;
25950;SDS011;13748;52.240;6.002;2023-07-29T07:05:51;4.47;;;2.85;;
25950;SDS011;13748;52.240;6.002;2023-07-29T07:08:18;4.82;;;2.75;;
25950;SDS011;13748;52.240;6.002;2023-07-29T07:10:46;3.42;;;2.50;;
25950;SDS011;13748;52.240;6.002;2023-07-29T07:13:14;4.70;;;2.22;;
25950;SDS011;13748;52.240;6.002;2023-07-29T07:15:40;6.20;;;2.75;;
25950;SDS011;13748;52.240;6.002;2023-07-29T07:18:07;4.35;;;2.33;;
25950;SDS011;13748;52.240;6.002;2023-07-29T07:20:35;3.65;;;2.55;;
25950;SDS011;13748;52.240;6.002;2023-07-29T07:23:03;4.30;;;2.40;;
25950;SDS011;13748;52.240;6.002;2023-07-29T07:25:31;3.53;;;2.35;;
25950;SDS011;13748;52.240;6.002;2023-07-29T07:27:58;3.72;;;2.42;;
25950;SDS011;13748;52.240;6.002;2023-07-29T07:30:25;4.07;;;2.53;;
25950;SDS011;13748;52.240;6.002;2023-07-29T07:32:52;3.20;;;2.15;;
25950;SDS011;13748;52.240;6.002;2023-07-29T07:35:25;3.20;;;2.28;;
25950;SDS011;13748;52.240;6.002;2023-07-29T07:37:51;2.90;;;2.00;;
25950;SDS011;13748;52.240;6.002;2023-07-29T07:40:18;3.88;;;2.15;;
25950;SDS011;13748;52.240;6.002;2023-07-29T07:42:45;5.47;;;2.53;;
25950;SDS011;13748;52.240;6.002;2023-07-29T07:45:12;4.25;;;2.47;;
25950;SDS011;13748;52.240;6.002;2023-07-29T07:47:39;5.18;;;3.00;;
25950;SDS011;13748;52.240;6.002;2023-07-29T07:50:06;5.38;;;3.42;;
25950;SDS011;13748;52.240;6.002;2023-07-29T07:52:33;4.43;;;3.60;;
25950;SDS011;13748;52.240;6.002;2023-07-29T07:55:00;4.97;;;4.45;;
25950;SDS011;13748;52.240;6.002;2023-07-29T07:57:27;5.57;;;3.85;;
25950;SDS011;13748;52.240;6.002;2023-07-29T07:59:53;4.57;;;4.15;;
25950;SDS011;13748;52.240;6.002;2023-07-29T08:02:20;5.03;;;3.30;;
25950;SDS011;13748;52.240;6.002;2023-07-29T08:04:47;5.28;;;3.95;;
25950;SDS011;13748;52.240;6.002;2023-07-29T08:07:14;4.60;;;4.20;;
25950;SDS011;13748;52.240;6.002;2023-07-29T08:09:41;7.55;;;4.45;;
25950;SDS011;13748;52.240;6.002;2023-07-29T08:12:08;6.50;;;4.53;;
25950;SDS011;13748;52.240;6.002;2023-07-29T08:14:35;6.95;;;4.47;;
25950;SDS011;13748;52.240;6.002;2023-07-29T08:17:01;6.85;;;4.97;;
25950;SDS011;13748;52.240;6.002;2023-07-29T08:19:30;6.43;;;5.28;;
25950;SDS011;13748;52.240;6.002;2023-07-29T08:21:57;6.50;;;5.43;;
25950;SDS011;13748;52.240;6.002;2023-07-29T08:24:24;5.68;;;4.80;;
25950;SDS011;13748;52.240;6.002;2023-07-29T08:26:51;5.95;;;4.90;;
25950;SDS011;13748;52.240;6.002;2023-07-29T08:29:18;8.25;;;3.97;;
25950;SDS011;13748;52.240;6.002;2023-07-29T08:31:45;4.75;;;4.18;;
25950;SDS011;13748;52.240;6.002;2023-07-29T08:34:12;8.27;;;4.80;;
25950;SDS011;13748;52.240;6.002;2023-07-29T08:36:38;10.35;;;4.72;;
25950;SDS011;13748;52.240;6.002;2023-07-29T08:39:05;4.43;;;4.03;;
25950;SDS011;13748;52.240;6.002;2023-07-29T08:41:37;9.32;;;4.65;;
25950;SDS011;13748;52.240;6.002;2023-07-29T08:44:12;6.15;;;4.63;;
25950;SDS011;13748;52.240;6.002;2023-07-29T08:46:52;5.95;;;4.93;;
25950;SDS011;13748;52.240;6.002;2023-07-29T08:49:20;5.72;;;4.78;;
25950;SDS011;13748;52.240;6.002;2023-07-29T08:51:49;5.88;;;5.30;;
25950;SDS011;13748;52.240;6.002;2023-07-29T08:54:18;5.70;;;4.80;;
25950;SDS011;13748;52.240;6.002;2023-07-29T08:56:45;6.32;;;4.55;;
25950;SDS011;13748;52.240;6.002;2023-07-29T08:59:12;8.23;;;4.35;;
25950;SDS011;13748;52.240;6.002;2023-07-29T09:01:41;5.78;;;4.53;;
25950;SDS011;13748;52.240;6.002;2023-07-29T09:04:08;8.85;;;4.68;;
25950;SDS011;13748;52.240;6.002;2023-07-29T09:06:35;5.15;;;4.60;;
25950;SDS011;13748;52.240;6.002;2023-07-29T09:09:05;5.00;;;4.05;;
25950;SDS011;13748;52.240;6.002;2023-07-29T09:11:34;4.90;;;4.22;;
25950;SDS011;13748;52.240;6.002;2023-07-29T09:14:03;6.55;;;3.60;;
25950;SDS011;13748;52.240;6.002;2023-07-29T09:16:30;3.70;;;3.40;;
25950;SDS011;13748;52.240;6.002;2023-07-29T09:19:00;3.53;;;3.22;;
25950;SDS011;13748;52.240;6.002;2023-07-29T09:21:29;4.72;;;3.40;;
25950;SDS011;13748;52.240;6.002;2023-07-29T09:23:56;3.53;;;3.20;;
25950;SDS011;13748;52.240;6.002;2023-07-29T09:26:26;4.38;;;3.28;;
25950;SDS011;13748;52.240;6.002;2023-07-29T09:28:55;4.18;;;3.25;;
25950;SDS011;13748;52.240;6.002;2023-07-29T09:31:24;6.50;;;3.60;;
25950;SDS011;13748;52.240;6.002;2023-07-29T09:33:56;4.55;;;3.20;;
25950;SDS011;13748;52.240;6.002;2023-07-29T09:36:26;4.53;;;3.38;;
25950;SDS011;13748;52.240;6.002;2023-07-29T09:38:54;4.70;;;3.78;;
25950;SDS011;13748;52.240;6.002;2023-07-29T09:41:25;4.53;;;3.70;;
25950;SDS011;13748;52.240;6.002;2023-07-29T09:43:57;3.38;;;3.00;;
25950;SDS011;13748;52.240;6.002;2023-07-29T09:46:25;3.90;;;3.22;;
25950;SDS011;13748;52.240;6.002;2023-07-29T09:49:05;3.97;;;3.58;;
25950;SDS011;13748;52.240;6.002;2023-07-29T09:51:39;4.40;;;3.28;;
25950;SDS011;13748;52.240;6.002;2023-07-29T09:54:06;5.88;;;3.33;;
25950;SDS011;13748;52.240;6.002;2023-07-29T09:56:36;3.35;;;2.95;;
25950;SDS011;13748;52.240;6.002;2023-07-29T09:59:07;4.65;;;3.08;;
25950;SDS011;13748;52.240;6.002;2023-07-29T10:01:34;4.90;;;3.20;;
25950;SDS011;13748;52.240;6.002;2023-07-29T10:04:03;4.93;;;2.80;;
25950;SDS011;13748;52.240;6.002;2023-07-29T10:06:32;2.80;;;2.60;;
25950;SDS011;13748;52.240;6.002;2023-07-29T10:09:01;3.50;;;2.92;;
25950;SDS011;13748;52.240;6.002;2023-07-29T10:11:28;3.50;;;3.20;;
25950;SDS011;13748;52.240;6.002;2023-07-29T10:13:57;3.20;;;3.00;;
25950;SDS011;13748;52.240;6.002;2023-07-29T10:16:34;3.40;;;2.72;;
25950;SDS011;13748;52.240;6.002;2023-07-29T10:19:04;5.47;;;3.47;;
25950;SDS011;13748;52.240;6.002;2023-07-29T10:21:31;5.75;;;3.25;;
25950;SDS011;13748;52.240;6.002;2023-07-29T10:24:00;6.13;;;3.55;;
25950;SDS011;13748;52.240;6.002;2023-07-29T10:26:29;4.45;;;2.70;;
25950;SDS011;13748;52.240;6.002;2023-07-29T10:28:57;3.67;;;3.38;;
25950;SDS011;13748;52.240;6.002;2023-07-29T10:31:31;3.40;;;3.10;;
25950;SDS011;13748;52.240;6.002;2023-07-29T10:33:59;4.03;;;3.30;;
25950;SDS011;13748;52.240;6.002;2023-07-29T10:36:27;4.13;;;3.72;;
25950;SDS011;13748;52.240;6.002;2023-07-29T10:38:55;4.50;;;3.53;;
25950;SDS011;13748;52.240;6.002;2023-07-29T10:41:22;3.95;;;3.47;;
25950;SDS011;13748;52.240;6.002;2023-07-29T10:43:49;4.28;;;3.88;;
25950;SDS011;13748;52.240;6.002;2023-07-29T10:46:19;4.03;;;3.63;;
25950;SDS011;13748;52.240;6.002;2023-07-29T10:51:30;6.55;;;4.00;;
25950;SDS011;13748;52.240;6.002;2023-07-29T10:56:37;5.10;;;4.57;;
25950;SDS011;13748;52.240;6.002;2023-07-29T11:01:54;5.85;;;5.00;;
25950;SDS011;13748;52.240;6.002;2023-07-29T11:04:24;4.82;;;4.40;;
25950;SDS011;13748;52.240;6.002;2023-07-29T11:15:16;4.85;;;4.32;;
25950;SDS011;13748;52.240;6.002;2023-07-29T11:20:11;4.40;;;4.00;;
25950;SDS011;13748;52.240;6.002;2023-07-29T11:22:38;4.03;;;3.67;;
25950;SDS011;13748;52.240;6.002;2023-07-29T11:25:09;4.57;;;3.95;;
25950;SDS011;13748;52.240;6.002;2023-07-29T11:27:38;3.95;;;3.55;;
25950;SDS011;13748;52.240;6.002;2023-07-29T11:30:06;4.10;;;3.80;;
25950;SDS011;13748;52.240;6.002;2023-07-29T11:32:35;3.78;;;3.47;;
25950;SDS011;13748;52.240;6.002;2023-07-29T11:35:06;3.72;;;3.42;;
25950;SDS011;13748;52.240;6.002;2023-07-29T11:37:38;4.45;;;3.72;;
25950;SDS011;13748;52.240;6.002;2023-07-29T11:40:05;3.78;;;3.47;;
25950;SDS011;13748;52.240;6.002;2023-07-29T11:42:36;3.55;;;3.25;;
25950;SDS011;13748;52.240;6.002;2023-07-29T11:45:05;3.97;;;3.22;;
25950;SDS011;13748;52.240;6.002;2023-07-29T11:47:33;3.35;;;2.83;;
25950;SDS011;13748;52.240;6.002;2023-07-29T11:50:04;3.80;;;3.00;;
25950;SDS011;13748;52.240;6.002;2023-07-29T11:52:32;5.40;;;3.10;;
25950;SDS011;13748;52.240;6.002;2023-07-29T11:55:00;4.93;;;2.80;;
25950;SDS011;13748;52.240;6.002;2023-07-29T11:57:30;11.95;;;5.68;;
25950;SDS011;13748;52.240;6.002;2023-07-29T11:59:57;28.85;;;9.57;;
25950;SDS011;13748;52.240;6.002;2023-07-29T12:02:25;3.55;;;3.25;;
25950;SDS011;13748;52.240;6.002;2023-07-29T12:04:53;4.47;;;3.53;;
25950;SDS011;13748;52.240;6.002;2023-07-29T12:07:20;3.40;;;3.10;;
25950;SDS011;13748;52.240;6.002;2023-07-29T12:09:47;5.38;;;3.08;;
25950;SDS011;13748;52.240;6.002;2023-07-29T12:12:15;3.70;;;3.10;;
25950;SDS011;13748;52.240;6.002;2023-07-29T12:14:45;2.90;;;2.60;;
25950;SDS011;13748;52.240;6.002;2023-07-29T12:17:14;2.88;;;2.10;;
25950;SDS011;13748;52.240;6.002;2023-07-29T12:19:42;3.50;;;1.92;;
25950;SDS011;13748;52.240;6.002;2023-07-29T12:22:09;1.92;;;1.80;;
25950;SDS011;13748;52.240;6.002;2023-07-29T12:24:37;2.30;;;2.10;;
25950;SDS011;13748;52.240;6.002;2023-07-29T12:27:05;2.33;;;1.90;;
25950;SDS011;13748;52.240;6.002;2023-07-29T12:29:41;2.75;;;1.80;;
25950;SDS011;13748;52.240;6.002;2023-07-29T12:32:09;3.20;;;2.40;;
25950;SDS011;13748;52.240;6.002;2023-07-29T12:34:37;2.80;;;2.25;;
25950;SDS011;13748;52.240;6.002;2023-07-29T12:37:08;2.80;;;2.30;;
25950;SDS011;13748;52.240;6.002;2023-07-29T12:39:39;4.10;;;2.63;;
25950;SDS011;13748;52.240;6.002;2023-07-29T12:42:07;3.60;;;2.45;;
25950;SDS011;13748;52.240;6.002;2023-07-29T12:44:35;2.97;;;2.63;;
25950;SDS011;13748;52.240;6.002;2023-07-29T12:47:03;4.20;;;2.83;;
25950;SDS011;13748;52.240;6.002;2023-07-29T12:49:32;3.85;;;2.80;;
25950;SDS011;13748;52.240;6.002;2023-07-29T12:51:59;2.95;;;2.65;;
25950;SDS011;13748;52.240;6.002;2023-07-29T12:54:26;2.80;;;2.60;;
25950;SDS011;13748;52.240;6.002;2023-07-29T12:56:53;2.70;;;2.45;;
25950;SDS011;13748;52.240;6.002;2023-07-29T12:59:20;2.63;;;2.33;;
25950;SDS011;13748;52.240;6.002;2023-07-29T13:01:47;3.70;;;2.30;;
25950;SDS011;13748;52.240;6.002;2023-07-29T13:04:14;2.47;;;2.22;;
25950;SDS011;13748;52.240;6.002;2023-07-29T13:06:41;2.70;;;1.98;;
25950;SDS011;13748;52.240;6.002;2023-07-29T13:09:08;2.30;;;1.88;;
25950;SDS011;13748;52.240;6.002;2023-07-29T13:11:35;2.22;;;1.70;;
25950;SDS011;13748;52.240;6.002;2023-07-29T13:14:03;1.88;;;1.40;;
25950;SDS011;13748;52.240;6.002;2023-07-29T13:16:29;2.58;;;2.00;;
25950;SDS011;13748;52.240;6.002;2023-07-29T13:18:57;3.45;;;1.73;;
25950;SDS011;13748;52.240;6.002;2023-07-29T13:21:24;2.25;;;1.67;;
25950;SDS011;13748;52.240;6.002;2023-07-29T13:23:51;2.13;;;1.92;;
25950;SDS011;13748;52.240;6.002;2023-07-29T13:26:18;2.25;;;1.60;;
25950;SDS011;13748;52.240;6.002;2023-07-29T13:28:45;1.30;;;1.20;;
25950;SDS011;13748;52.240;6.002;2023-07-29T13:31:12;3.55;;;1.40;;
25950;SDS011;13748;52.240;6.002;2023-07-29T13:33:39;2.03;;;1.40;;
25950;SDS011;13748;52.240;6.002;2023-07-29T13:36:06;1.90;;;1.55;;
25950;SDS011;13748;52.240;6.002;2023-07-29T13:38:34;1.85;;;1.45;;
25950;SDS011;13748;52.240;6.002;2023-07-29T13:41:01;1.92;;;1.50;;
25950;SDS011;13748;52.240;6.002;2023-07-29T13:43:28;2.20;;;1.60;;
25950;SDS011;13748;52.240;6.002;2023-07-29T13:45:55;1.27;;;1.17;;
25950;SDS011;13748;52.240;6.002;2023-07-29T13:48:22;1.65;;;1.50;;
25950;SDS011;13748;52.240;6.002;2023-07-29T13:50:49;1.92;;;1.42;;
25950;SDS011;13748;52.240;6.002;2023-07-29T13:53:17;2.17;;;1.40;;
25950;SDS011;13748;52.240;6.002;2023-07-29T13:55:44;1.52;;;1.25;;
25950;SDS011;13748;52.240;6.002;2023-07-29T13:58:11;1.40;;;1.30;;
25950;SDS011;13748;52.240;6.002;2023-07-29T14:00:38;1.75;;;1.13;;
25950;SDS011;13748;52.240;6.002;2023-07-29T14:03:05;1.38;;;1.23;;
25950;SDS011;13748;52.240;6.002;2023-07-29T14:05:32;2.13;;;1.33;;
25950;SDS011;13748;52.240;6.002;2023-07-29T14:07:59;1.90;;;1.65;;
25950;SDS011;13748;52.240;6.002;2023-07-29T14:10:25;1.60;;;1.30;;
25950;SDS011;13748;52.240;6.002;2023-07-29T14:12:52;1.23;;;1.13;;
25950;SDS011;13748;52.240;6.002;2023-07-29T14:15:19;1.73;;;1.50;;
25950;SDS011;13748;52.240;6.002;2023-07-29T14:17:47;1.48;;;1.38;;
25950;SDS011;13748;52.240;6.002;2023-07-29T14:20:14;1.48;;;1.38;;
25950;SDS011;13748;52.240;6.002;2023-07-29T14:22:41;3.35;;;1.95;;
25950;SDS011;13748;52.240;6.002;2023-07-29T14:25:08;2.05;;;1.85;;
25950;SDS011;13748;52.240;6.002;2023-07-29T14:27:35;2.80;;;2.22;;
25950;SDS011;13748;52.240;6.002;2023-07-29T14:30:03;2.95;;;2.45;;
25950;SDS011;13748;52.240;6.002;2023-07-29T14:32:31;3.10;;;2.83;;
25950;SDS011;13748;52.240;6.002;2023-07-29T14:34:58;2.22;;;2.03;;
25950;SDS011;13748;52.240;6.002;2023-07-29T14:37:30;2.78;;;2.15;;
25950;SDS011;13748;52.240;6.002;2023-07-29T14:39:57;3.80;;;2.63;;
25950;SDS011;13748;52.240;6.002;2023-07-29T14:42:25;3.85;;;2.80;;
25950;SDS011;13748;52.240;6.002;2023-07-29T14:44:52;2.85;;;2.28;;
25950;SDS011;13748;52.240;6.002;2023-07-29T14:47:20;2.47;;;2.28;;
25950;SDS011;13748;52.240;6.002;2023-07-29T14:49:47;3.03;;;2.38;;
25950;SDS011;13748;52.240;6.002;2023-07-29T14:52:14;2.20;;;2.00;;
25950;SDS011;13748;52.240;6.002;2023-07-29T14:54:41;2.70;;;2.45;;
25950;SDS011;13748;52.240;6.002;2023-07-29T14:57:09;3.85;;;2.50;;
25950;SDS011;13748;52.240;6.002;2023-07-29T14:59:36;3.05;;;2.55;;
25950;SDS011;13748;52.240;6.002;2023-07-29T15:02:03;4.20;;;2.70;;
25950;SDS011;13748;52.240;6.002;2023-07-29T15:04:30;2.58;;;2.20;;
25950;SDS011;13748;52.240;6.002;2023-07-29T15:06:57;3.45;;;2.33;;
25950;SDS011;13748;52.240;6.002;2023-07-29T15:09:26;2.42;;;2.22;;
25950;SDS011;13748;52.240;6.002;2023-07-29T15:11:53;2.85;;;2.40;;
25950;SDS011;13748;52.240;6.002;2023-07-29T15:14:22;4.30;;;2.58;;